Time;durP1;ratioP1;P1;durP2;ratioP2;P2;SDS_P1;SDS_P2;PMS_P1;PMS_P2;Temp;Humidity;BMP_temperature;BMP_pressure;BME280_temperature;BME280_humidity;BME280_pressure;Samples;Min_cycle;Max_cycle;Signal;HPM_P1;HPM_P2
2021/04/28 00:01:53;;;;;;;9.13;3.60;;;;;;;4.65;68.38;100822.22;5052671;28;20397;-78
2021/04/28 00:04:19;;;;;;;8.88;3.42;;;;;;;4.61;68.89;100824.22;5056974;28;20028;-78
2021/04/28 00:06:48;;;;;;;5.40;2.72;;;;;;;4.64;68.38;100817.00;5054606;28;20028;-78
2021/04/28 00:09:14;;;;;;;5.40;2.90;;;;;;;4.61;68.54;100818.91;5053062;28;20057;-78
2021/04/28 00:11:39;;;;;;;7.40;3.58;;;;;;;4.61;68.81;100813.56;5053457;28;20068;-77
2021/04/28 00:14:08;;;;;;;6.63;3.53;;;;;;;4.54;68.99;100809.59;5052414;28;20033;-77
2021/04/28 00:16:34;;;;;;;8.15;3.40;;;;;;;4.51;68.68;100803.59;5052311;28;20028;-77
2021/04/28 00:18:59;;;;;;;11.07;3.60;;;;;;;4.48;68.97;100803.78;5052738;28;20127;-77
2021/04/28 00:21:25;;;;;;;9.63;4.47;;;;;;;4.48;69.35;100801.97;5052454;28;20028;-78
2021/04/28 00:23:51;;;;;;;4.88;2.80;;;;;;;4.42;69.06;100798.84;5034041;28;20086;-79
2021/04/28 00:26:16;;;;;;;8.77;3.50;;;;;;;4.36;69.87;100789.44;5052782;28;20037;-78
2021/04/28 00:28:44;;;;;;;7.45;4.32;;;;;;;4.32;69.82;100793.25;5053224;28;20539;-78
2021/04/28 00:31:10;;;;;;;9.30;3.80;;;;;;;4.27;69.45;100784.66;5059088;28;20029;-77
2021/04/28 00:33:35;;;;;;;5.93;3.40;;;;;;;4.16;69.65;100787.97;5052696;28;20033;-77
2021/04/28 00:36:01;;;;;;;5.20;3.65;;;;;;;4.12;70.25;100787.31;5051176;28;20115;-77
2021/04/28 00:38:26;;;;;;;6.10;3.33;;;;;;;4.10;70.72;100783.91;5049890;28;20500;-77
2021/04/28 00:40:53;;;;;;;13.65;4.18;;;;;;;4.00;71.42;100780.06;5034037;28;20025;-77
2021/04/28 00:43:19;;;;;;;9.02;3.35;;;;;;;3.92;71.53;100779.69;5032982;28;20551;-77
2021/04/28 00:45:45;;;;;;;7.20;3.72;;;;;;;3.90;71.56;100776.25;5031639;28;20116;-77
2021/04/28 00:48:11;;;;;;;10.15;3.83;;;;;;;3.81;71.87;100772.34;5031553;28;20032;-77
2021/04/28 00:50:41;;;;;;;5.25;3.90;;;;;;;3.81;71.81;100776.81;5050649;28;20079;-77
2021/04/28 00:53:08;;;;;;;9.73;4.03;;;;;;;3.75;72.40;100767.41;5051648;28;20052;-77
2021/04/28 00:55:35;;;;;;;11.75;3.30;;;;;;;3.71;73.14;100768.53;5052224;28;20443;-77
2021/04/28 00:58:01;;;;;;;11.38;3.53;;;;;;;3.63;72.15;100768.97;5053808;28;20057;-76
2021/04/28 01:00:27;;;;;;;6.38;4.20;;;;;;;3.59;73.37;100767.44;5050740;28;20080;-77
2021/04/28 01:02:53;;;;;;;10.18;4.13;;;;;;;3.61;73.45;100765.56;5051211;28;20032;-77
2021/04/28 01:05:19;;;;;;;7.43;4.40;;;;;;;3.57;73.19;100764.00;5050762;28;20504;-77
2021/04/28 01:07:47;;;;;;;8.45;5.18;;;;;;;3.55;72.83;100765.06;5033210;28;20037;-76
2021/04/28 01:10:16;;;;;;;6.20;3.88;;;;;;;3.52;73.34;100754.59;5032306;28;20068;-76
2021/04/28 01:12:41;;;;;;;7.07;3.63;;;;;;;3.46;73.98;100755.84;5051703;28;20112;-77
2021/04/28 01:15:11;;;;;;;14.48;3.92;;;;;;;3.44;73.66;100758.56;5051858;28;20548;-77
2021/04/28 01:17:37;;;;;;;8.23;4.05;;;;;;;3.45;73.84;100756.75;5051108;28;20025;-77
2021/04/28 01:20:05;;;;;;;6.40;3.65;;;;;;;3.39;74.93;100755.31;5035322;28;20028;-77
2021/04/28 01:22:41;;;;;;;7.25;3.78;;;;;;;3.35;74.19;100758.25;5052183;28;20029;-77
2021/04/28 01:25:09;;;;;;;8.60;3.70;;;;;;;3.35;75.15;100750.28;5051362;28;20037;-76
2021/04/28 01:27:36;;;;;;;6.15;3.75;;;;;;;3.31;74.75;100754.06;5050886;28;20477;-76
2021/04/28 01:30:04;;;;;;;7.65;3.90;;;;;;;3.32;75.40;100750.47;5050416;28;20405;-77
2021/04/28 01:32:30;;;;;;;8.48;3.70;;;;;;;3.32;74.67;100759.28;5032025;28;20025;-77
2021/04/28 01:34:57;;;;;;;8.65;3.65;;;;;;;3.27;74.77;100752.50;5049611;28;20033;-77
2021/04/28 01:37:23;;;;;;;7.45;3.78;;;;;;;3.27;75.10;100750.72;5049283;28;20128;-77
2021/04/28 01:39:51;;;;;;;12.18;4.45;;;;;;;3.27;75.20;100755.19;5049440;28;20102;-76
2021/04/28 01:42:17;;;;;;;12.60;3.67;;;;;;;3.27;75.40;100750.72;5031152;28;20048;-77
2021/04/28 01:44:43;;;;;;;7.78;3.40;;;;;;;3.25;75.73;100752.63;5050978;28;20032;-78
2021/04/28 01:47:09;;;;;;;9.77;3.42;;;;;;;3.19;75.60;100751.16;5034486;28;20040;-78
2021/04/28 01:49:35;;;;;;;6.80;3.38;;;;;;;3.16;75.97;100755.81;5058909;28;20492;-78
2021/04/28 01:52:02;;;;;;;10.13;3.25;;;;;;;3.16;75.57;100763.78;5059314;28;20123;-78
2021/04/28 01:54:28;;;;;;;7.47;3.33;;;;;;;3.16;75.52;100755.81;5058135;28;20060;-78
2021/04/28 01:56:55;;;;;;;5.90;3.20;;;;;;;3.10;75.43;100753.50;5057671;28;20032;-78
2021/04/28 01:59:21;;;;;;;7.68;3.28;;;;;;;3.09;75.98;100747.34;5057467;28;20021;-78
2021/04/28 02:01:51;;;;;;;7.70;3.10;;;;;;;3.04;76.34;100749.38;5038565;28;20038;-78
2021/04/28 02:04:18;;;;;;;5.97;3.47;;;;;;;3.02;76.75;100745.09;5055733;28;20563;-77
2021/04/28 02:06:43;;;;;;;8.57;3.35;;;;;;;3.03;76.22;100753.00;5055584;28;20033;-76
2021/04/28 02:09:09;;;;;;;11.45;2.95;;;;;;;2.99;76.17;100743.47;5054101;28;20386;-77
2021/04/28 02:11:35;;;;;;;6.47;3.00;;;;;;;2.97;75.87;100734.75;5054284;28;20059;-77
2021/04/28 02:14:02;;;;;;;7.43;3.03;;;;;;;2.92;76.51;100739.47;5060318;28;20025;-78
2021/04/28 02:16:30;;;;;;;9.98;3.30;;;;;;;2.91;77.07;100729.78;5054694;28;20025;-78
2021/04/28 02:18:57;;;;;;;8.55;3.38;;;;;;;2.88;76.93;100735.28;5054718;28;20190;-78
2021/04/28 02:21:22;;;;;;;6.15;2.75;;;;;;;2.84;76.67;100729.25;5055566;28;20037;-77
2021/04/28 02:23:48;;;;;;;6.55;3.10;;;;;;;2.82;76.77;100728.50;5057919;28;20028;-78
2021/04/28 02:26:14;;;;;;;5.85;2.70;;;;;;;2.81;76.17;100726.78;5057061;28;20025;-77
2021/04/28 02:28:39;;;;;;;7.93;2.75;;;;;;;2.79;76.03;100727.81;5055706;28;20536;-78
2021/04/28 02:31:05;;;;;;;6.90;2.70;;;;;;;2.79;76.49;100710.09;5055304;28;20033;-78
2021/04/28 02:33:30;;;;;;;5.30;3.13;;;;;;;2.74;76.34;100715.66;5056015;28;20531;-77
2021/04/28 02:35:57;;;;;;;8.88;3.45;;;;;;;2.70;76.09;100719.44;5054079;28;20080;-77
2021/04/28 02:38:23;;;;;;;3.85;2.25;;;;;;;2.67;76.49;100716.09;5036116;28;20024;-77
2021/04/28 02:40:49;;;;;;;8.82;3.10;;;;;;;2.60;76.07;100714.69;5058729;28;20397;-77
2021/04/28 02:43:16;;;;;;;3.50;2.60;;;;;;;2.59;76.63;100710.34;5055586;28;20032;-77
2021/04/28 02:45:43;;;;;;;10.85;3.75;;;;;;;2.49;76.48;100707.34;5054648;28;20029;-77
2021/04/28 02:48:09;;;;;;;14.13;2.38;;;;;;;2.50;76.20;100714.34;5054182;28;20033;-77
2021/04/28 02:50:34;;;;;;;5.07;2.63;;;;;;;2.39;76.93;100711.44;5053792;28;20048;-77
2021/04/28 02:53:00;;;;;;;9.77;3.78;;;;;;;2.41;76.37;100706.91;5035597;28;20047;-77
2021/04/28 02:55:27;;;;;;;7.07;2.47;;;;;;;2.34;76.71;100700.22;5054360;28;20029;-76
2021/04/28 02:57:53;;;;;;;6.80;2.30;;;;;;;2.28;76.70;100712.03;5053355;28;20405;-77
2021/04/28 03:00:21;;;;;;;5.40;2.70;;;;;;;2.22;77.33;100705.25;5052480;28;20098;-77
2021/04/28 03:02:48;;;;;;;7.55;3.10;;;;;;;2.22;77.01;100699.09;5053104;28;20032;-78
2021/04/28 03:05:21;;;;;;;6.55;2.25;;;;;;;2.23;77.21;100695.50;5053593;28;20033;-77
2021/04/28 03:07:46;;;;;;;5.32;2.38;;;;;;;2.18;76.64;100700.22;5053534;28;20382;-78
2021/04/28 03:10:16;;;;;;;4.40;2.13;;;;;;;2.24;77.12;100700.75;5057664;28;20071;-78
2021/04/28 03:12:44;;;;;;;7.18;2.53;;;;;;;2.21;77.31;100695.59;5038601;28;20037;-78
2021/04/28 03:15:12;;;;;;;5.70;2.38;;;;;;;2.16;76.92;100689.69;5055423;28;20432;-78
2021/04/28 03:17:38;;;;;;;7.13;2.63;;;;;;;2.16;77.47;100686.16;5054654;28;20645;-77
2021/04/28 03:20:05;;;;;;;4.93;2.30;;;;;;;2.20;77.79;100679.75;5035771;28;20044;-77
2021/04/28 03:22:31;;;;;;;3.20;2.28;;;;;;;2.17;78.22;100685.22;5053146;28;20041;-77
2021/04/28 03:24:56;;;;;;;7.57;2.65;;;;;;;2.16;77.61;100689.69;5053596;28;20043;-78
2021/04/28 03:27:24;;;;;;;5.15;2.70;;;;;;;2.16;77.63;100688.81;5034750;28;20021;-77
2021/04/28 03:29:50;;;;;;;3.65;2.38;;;;;;;2.14;76.80;100680.94;5034336;28;20033;-77
2021/04/28 03:32:16;;;;;;;4.75;2.90;;;;;;;2.14;77.60;100680.94;5053568;28;20025;-77
2021/04/28 03:34:41;;;;;;;7.47;3.00;;;;;;;2.11;77.65;100681.09;5054262;28;20090;-77
2021/04/28 03:37:07;;;;;;;8.93;2.58;;;;;;;2.11;78.06;100664.31;5057056;28;20032;-77
2021/04/28 03:39:32;;;;;;;5.60;2.38;;;;;;;2.12;77.37;100677.53;5055733;28;20083;-78
2021/04/28 03:41:58;;;;;;;7.97;2.42;;;;;;;2.03;78.20;100675.38;5054036;28;20025;-78
2021/04/28 03:44:24;;;;;;;4.72;2.30;;;;;;;2.02;78.06;100670.97;5053910;28;20466;-77
2021/04/28 03:46:49;;;;;;;4.63;2.60;;;;;;;2.00;78.99;100671.09;5053553;28;20051;-77
2021/04/28 03:49:15;;;;;;;4.05;2.63;;;;;;;2.02;78.57;100670.97;5052381;28;20028;-77
2021/04/28 03:51:41;;;;;;;5.00;2.42;;;;;;;1.94;78.78;100673.22;5052567;28;20341;-77
2021/04/28 03:54:07;;;;;;;7.47;2.70;;;;;;;1.91;79.12;100670.72;5052635;28;20037;-77
2021/04/28 03:56:32;;;;;;;4.60;2.30;;;;;;;1.93;79.23;100671.47;5034646;28;20112;-78
2021/04/28 03:58:57;;;;;;;4.13;2.47;;;;;;;2.02;79.30;100669.22;5055232;28;20455;-77
2021/04/28 04:01:23;;;;;;;8.70;3.30;;;;;;;2.04;79.44;100667.31;5053801;28;20033;-77
2021/04/28 04:03:48;;;;;;;5.70;3.22;;;;;;;2.08;79.40;100673.31;5055112;28;20056;-78
2021/04/28 04:06:14;;;;;;;8.52;2.78;;;;;;;2.08;79.42;100675.97;5053073;28;20033;-78
2021/04/28 04:08:39;;;;;;;5.65;3.20;;;;;;;2.06;79.36;100673.41;5052604;28;20556;-77
2021/04/28 04:11:04;;;;;;;7.95;2.70;;;;;;;2.06;79.33;100670.75;5053014;28;20041;-78
2021/04/28 04:13:30;;;;;;;6.80;2.65;;;;;;;2.13;78.54;100675.72;5052906;28;20432;-77
2021/04/28 04:15:55;;;;;;;10.30;3.00;;;;;;;2.10;79.32;100675.88;5053133;28;20116;-77
2021/04/28 04:18:21;;;;;;;7.88;2.75;;;;;;;2.13;78.93;100675.72;5035042;28;20123;-77
2021/04/28 04:20:46;;;;;;;5.28;3.03;;;;;;;2.14;79.19;100675.63;5053092;28;20037;-77
2021/04/28 04:23:12;;;;;;;3.80;2.53;;;;;;;2.20;78.70;100677.09;5037435;28;20031;-77
2021/04/28 04:25:37;;;;;;;7.32;3.20;;;;;;;2.23;78.79;100672.47;5052022;28;20033;-77
2021/04/28 04:28:03;;;;;;;6.57;2.80;;;;;;;2.23;78.31;100674.28;5052170;28;20056;-77
2021/04/28 04:30:31;;;;;;;12.82;3.05;;;;;;;2.26;78.26;100672.31;5033059;28;20032;-76
2021/04/28 04:32:57;;;;;;;13.27;2.92;;;;;;;2.35;78.62;100676.25;5032550;28;20395;-76
2021/04/28 04:35:22;;;;;;;6.28;2.72;;;;;;;2.39;78.84;100676.94;5051062;28;20115;-77
2021/04/28 04:37:48;;;;;;;8.75;3.00;;;;;;;2.45;78.57;100673.94;5033220;28;20539;-77
2021/04/28 04:40:14;;;;;;;4.53;2.63;;;;;;;2.50;78.05;100671.88;5051990;28;20111;-78
2021/04/28 04:42:39;;;;;;;8.38;3.63;;;;;;;2.56;78.56;100679.50;5035430;28;20039;-78
2021/04/28 04:45:05;;;;;;;6.30;2.90;;;;;;;2.67;78.94;100676.25;5054286;28;20021;-78
2021/04/28 04:47:30;;;;;;;9.20;3.55;;;;;;;2.75;78.55;100674.88;5053276;28;20032;-77
2021/04/28 04:49:56;;;;;;;18.55;3.60;;;;;;;2.88;78.21;100669.72;5040171;28;20655;-78
2021/04/28 04:52:21;;;;;;;9.35;2.80;;;;;;;2.98;78.19;100672.69;5036691;28;20403;-78
2021/04/28 04:54:46;;;;;;;5.05;2.92;;;;;;;3.10;77.99;100669.31;5054885;28;20060;-78
2021/04/28 04:57:12;;;;;;;9.75;3.10;;;;;;;3.24;77.90;100679.13;5050962;28;20102;-77
2021/04/28 04:59:37;;;;;;;12.40;2.58;;;;;;;3.33;77.46;100675.06;5050822;28;20167;-77
2021/04/28 05:02:02;;;;;;;11.27;2.88;;;;;;;3.42;77.49;100679.84;5050938;28;20040;-77
2021/04/28 05:04:28;;;;;;;8.65;2.90;;;;;;;3.53;77.33;100677.41;5033027;28;20044;-77
2021/04/28 05:06:53;;;;;;;5.40;2.63;;;;;;;3.65;77.06;100682.00;5052740;28;20362;-78
2021/04/28 05:09:20;;;;;;;3.20;2.45;;;;;;;3.76;76.50;100667.16;5053077;28;20029;-78
2021/04/28 05:11:45;;;;;;;9.27;2.92;;;;;;;3.90;76.30;100670.69;5034853;28;20036;-77
2021/04/28 05:14:11;;;;;;;13.75;2.70;;;;;;;4.06;75.79;100664.41;5034328;28;20033;-78
2021/04/28 05:16:36;;;;;;;4.43;2.78;;;;;;;4.14;75.09;100662.16;5051174;28;20471;-77
2021/04/28 05:19:02;;;;;;;6.20;2.83;;;;;;;4.24;74.84;100662.41;5032779;28;20512;-77
2021/04/28 05:21:29;;;;;;;6.72;2.80;;;;;;;4.32;74.45;100668.97;5057260;28;20035;-78
2021/04/28 05:23:55;;;;;;;7.50;2.47;;;;;;;4.45;74.90;100674.34;5053466;28;20029;-78
2021/04/28 05:26:20;;;;;;;11.00;2.80;;;;;;;4.58;74.67;100664.63;5036243;28;20392;-78
2021/04/28 05:28:45;;;;;;;4.25;2.40;;;;;;;4.71;73.41;100670.00;5051672;28;20040;-77
2021/04/28 05:31:11;;;;;;;18.05;2.70;;;;;;;4.78;72.91;100658.00;5052622;28;20436;-77
2021/04/28 05:33:36;;;;;;;6.70;2.40;;;;;;;4.86;73.05;100656.63;5052561;28;20029;-77
2021/04/28 05:36:03;;;;;;;7.65;2.67;;;;;;;4.95;72.53;100656.88;5052224;28;20032;-77
2021/04/28 05:38:29;;;;;;;5.13;2.90;;;;;;;5.04;72.21;100653.59;5034126;28;20541;-78
2021/04/28 05:40:54;;;;;;;7.10;2.85;;;;;;;5.10;72.77;100660.31;5053144;28;20039;-78
2021/04/28 05:43:20;;;;;;;12.55;2.90;;;;;;;5.16;72.37;100656.41;5033435;28;20143;-78
2021/04/28 05:45:46;;;;;;;3.65;2.35;;;;;;;5.23;71.93;100655.03;5047917;28;20057;-78
2021/04/28 05:48:13;;;;;;;8.13;2.58;;;;;;;5.30;72.05;100659.00;5048845;28;20396;-78
2021/04/28 05:50:38;;;;;;;13.52;2.92;;;;;;;5.33;71.74;100657.94;5049485;28;20087;-78
2021/04/28 05:53:05;;;;;;;5.90;3.38;;;;;;;5.37;71.90;100652.28;5051322;28;20044;-81
2021/04/28 05:55:30;;;;;;;7.05;2.70;;;;;;;5.44;71.67;100655.38;5040242;28;20112;-81
2021/04/28 05:57:55;;;;;;;6.10;2.60;;;;;;;5.55;71.38;100649.31;5050505;28;20530;-80
2021/04/28 06:00:21;;;;;;;6.22;2.60;;;;;;;5.60;71.17;100644.50;5051315;28;20531;-80
2021/04/28 06:02:46;;;;;;;7.32;3.00;;;;;;;5.68;70.68;100652.84;5050494;28;20033;-80
2021/04/28 06:05:12;;;;;;;5.55;2.22;;;;;;;5.72;70.62;100644.53;5045562;28;20079;-81
2021/04/28 06:07:38;;;;;;;8.55;2.60;;;;;;;5.81;70.54;100651.00;5033148;28;20481;-81
2021/04/28 06:10:04;;;;;;;5.97;2.83;;;;;;;5.87;70.54;100644.41;5026063;28;20075;-81
2021/04/28 06:12:29;;;;;;;8.55;3.22;;;;;;;5.94;70.78;100648.41;5027478;28;20108;-81
2021/04/28 06:14:55;;;;;;;8.07;2.40;;;;;;;6.01;70.06;100649.66;5041217;28;20048;-81
2021/04/28 06:17:20;;;;;;;4.15;2.53;;;;;;;6.07;70.24;100645.69;5030819;28;20029;-81
2021/04/28 06:19:45;;;;;;;6.15;2.72;;;;;;;6.12;70.15;100647.09;5049352;28;20029;-80
2021/04/28 06:22:13;;;;;;;11.43;2.78;;;;;;;6.17;70.13;100644.06;5034634;28;20066;-81
2021/04/28 06:24:41;;;;;;;10.55;3.40;;;;;;;6.26;69.90;100646.09;5043613;28;20083;-81
2021/04/28 06:27:09;;;;;;;8.90;3.13;;;;;;;6.28;69.27;100644.16;5048485;28;20089;-80
2021/04/28 06:29:36;;;;;;;4.38;3.28;;;;;;;6.28;69.56;100643.31;5044680;28;20021;-80
2021/04/28 06:32:02;;;;;;;8.70;4.15;;;;;;;6.29;69.56;100639.66;5048884;28;20029;-81
2021/04/28 06:34:30;;;;;;;7.13;3.55;;;;;;;6.29;69.38;100640.53;5050760;28;20392;-81
2021/04/28 06:36:55;;;;;;;7.45;3.25;;;;;;;6.34;69.31;100632.19;5037963;28;20040;-81
2021/04/28 06:39:20;;;;;;;4.80;3.30;;;;;;;6.35;68.96;100634.72;5050795;28;20025;-80
2021/04/28 06:41:46;;;;;;;9.23;3.78;;;;;;;6.38;68.40;100631.84;5035710;28;20040;-80
2021/04/28 06:44:11;;;;;;;6.63;3.83;;;;;;;6.43;68.45;100637.72;5054586;28;20036;-80
2021/04/28 06:46:37;;;;;;;11.40;3.50;;;;;;;6.45;68.86;100633.09;5042575;28;20021;-81
2021/04/28 06:49:02;;;;;;;10.27;4.50;;;;;;;6.54;68.76;100639.59;5054422;28;20048;-80
2021/04/28 06:51:30;;;;;;;13.50;4.18;;;;;;;6.63;68.79;100630.03;5052356;28;20064;-81
2021/04/28 06:53:59;;;;;;;9.02;3.55;;;;;;;6.77;68.34;100637.06;5036914;28;20051;-80
2021/04/28 06:56:27;;;;;;;14.10;3.67;;;;;;;6.79;68.22;100627.09;5053180;28;20036;-81
2021/04/28 06:58:52;;;;;;;8.50;4.57;;;;;;;6.90;68.31;100632.50;5061242;28;20033;-81
2021/04/28 07:01:18;;;;;;;8.02;4.53;;;;;;;6.96;68.74;100629.34;5054708;28;20028;-80
2021/04/28 07:03:43;;;;;;;8.57;4.32;;;;;;;7.03;68.11;100630.59;5038520;28;20028;-81
2021/04/28 07:06:11;;;;;;;8.55;4.22;;;;;;;7.10;68.14;100630.97;5054709;28;20103;-81
2021/04/28 07:08:37;;;;;;;8.88;4.18;;;;;;;7.17;68.38;100628.72;5036764;28;20029;-77
2021/04/28 07:11:02;;;;;;;8.18;3.92;;;;;;;7.19;68.59;100619.56;5036223;28;20107;-78
2021/04/28 07:13:27;;;;;;;6.47;3.85;;;;;;;7.24;68.20;100622.75;5036283;28;20052;-78
2021/04/28 07:15:53;;;;;;;10.45;3.90;;;;;;;7.30;67.57;100624.97;5044674;28;20084;-78
2021/04/28 07:18:19;;;;;;;4.85;3.90;;;;;;;7.40;67.96;100621.59;5042483;28;20029;-76
2021/04/28 07:20:44;;;;;;;8.50;4.07;;;;;;;7.43;67.92;100621.34;5038388;28;20030;-79
2021/04/28 07:23:10;;;;;;;8.85;4.18;;;;;;;7.49;67.85;100624.41;5015163;28;20056;-79
2021/04/28 07:25:35;;;;;;;9.10;4.45;;;;;;;7.58;67.58;100614.81;5050588;28;20045;-79
2021/04/28 07:28:00;;;;;;;9.73;4.38;;;;;;;7.63;67.07;100615.31;5047570;28;20044;-78
2021/04/28 07:30:26;;;;;;;15.35;5.57;;;;;;;7.70;67.33;100608.50;5040990;28;20028;-78
2021/04/28 07:32:51;;;;;;;8.30;4.68;;;;;;;7.82;68.34;100617.38;5042638;28;20017;-79
2021/04/28 07:35:19;;;;;;;10.63;5.00;;;;;;;7.89;68.51;100615.06;5054826;28;20025;-78
2021/04/28 07:37:44;;;;;;;15.07;5.70;;;;;;;7.96;67.94;100619.84;5054475;28;20033;-79
2021/04/28 07:40:10;;;;;;;6.70;4.70;;;;;;;7.96;67.32;100613.63;5046175;28;20438;-79
2021/04/28 07:42:36;;;;;;;9.70;4.78;;;;;;;8.05;68.29;100615.56;5044401;28;20548;-79
2021/04/28 07:45:01;;;;;;;8.93;4.88;;;;;;;8.08;68.15;100615.31;5052040;28;20113;-79
2021/04/28 07:47:27;;;;;;;10.75;4.95;;;;;;;8.10;68.06;100618.72;5030920;28;20029;-78
2021/04/28 07:49:52;;;;;;;9.20;5.15;;;;;;;8.12;68.09;100619.44;5051241;28;20100;-77
2021/04/28 07:52:18;;;;;;;11.13;5.03;;;;;;;8.18;68.38;100616.28;5052564;28;20116;-78
2021/04/28 07:54:43;;;;;;;11.35;5.18;;;;;;;8.26;68.63;100613.84;5052161;28;20036;-77
2021/04/28 07:57:08;;;;;;;7.65;5.25;;;;;;;8.17;68.86;100621.75;5052217;28;20044;-78
2021/04/28 07:59:35;;;;;;;9.27;5.40;;;;;;;8.16;69.16;100620.06;5061559;28;20037;-78
2021/04/28 08:02:00;;;;;;;9.43;5.45;;;;;;;8.17;69.35;100625.31;5056247;28;20461;-78
2021/04/28 08:04:26;;;;;;;11.15;5.55;;;;;;;8.24;68.95;100614.94;5053885;28;20031;-78
2021/04/28 08:06:51;;;;;;;10.90;5.35;;;;;;;8.29;69.15;100618.06;5064719;28;20057;-79
2021/04/28 08:09:17;;;;;;;11.57;5.78;;;;;;;8.34;68.71;100613.22;5068353;28;20025;-79
2021/04/28 08:11:42;;;;;;;9.20;5.68;;;;;;;8.35;68.94;100616.75;5056647;28;20041;-78
2021/04/28 08:14:07;;;;;;;13.90;5.30;;;;;;;8.38;68.58;100619.16;5055749;28;20029;-80
2021/04/28 08:16:34;;;;;;;13.02;6.57;;;;;;;8.37;68.07;100615.63;5055274;28;20098;-79
2021/04/28 08:18:59;;;;;;;8.48;5.65;;;;;;;8.44;67.98;100618.69;5047471;28;20025;-79
2021/04/28 08:21:24;;;;;;;8.55;5.20;;;;;;;8.60;67.88;100621.84;5053849;28;20545;-79
2021/04/28 08:23:50;;;;;;;11.90;5.65;;;;;;;8.70;67.18;100617.41;5038136;28;20029;-79
2021/04/28 08:26:16;;;;;;;14.48;6.25;;;;;;;8.72;67.61;100623.53;5054038;28;20028;-79
2021/04/28 08:28:44;;;;;;;11.98;6.38;;;;;;;8.76;67.73;100615.22;5055116;28;20468;-79
2021/04/28 08:31:14;;;;;;;11.63;6.47;;;;;;;8.81;65.93;100619.19;5039401;28;20028;-79
2021/04/28 08:33:44;;;;;;;7.57;5.22;;;;;;;8.87;66.09;100623.22;5053325;28;20029;-79
2021/04/28 08:36:09;;;;;;;6.97;6.03;;;;;;;9.05;66.24;100623.50;5040123;28;20060;-79
2021/04/28 08:38:36;;;;;;;12.40;6.10;;;;;;;9.20;66.17;100614.16;5054986;28;20495;-79
2021/04/28 08:41:04;;;;;;;10.77;5.43;;;;;;;9.43;65.37;100623.81;5054651;28;20025;-80
2021/04/28 08:43:29;;;;;;;12.95;6.10;;;;;;;9.68;64.11;100623.53;5036225;28;20029;-80
2021/04/28 08:45:55;;;;;;;8.55;5.97;;;;;;;9.81;63.90;100618.78;5037491;28;20032;-79
2021/04/28 08:48:20;;;;;;;11.05;6.43;;;;;;;9.97;63.44;100626.34;5051516;28;20037;-79
2021/04/28 08:50:49;;;;;;;12.35;6.30;;;;;;;10.12;62.97;100625.00;5055701;28;20033;-80
2021/04/28 08:53:16;;;;;;;11.48;5.97;;;;;;;10.02;62.67;100611.53;5055659;28;20548;-80
2021/04/28 08:55:43;;;;;;;14.50;7.03;;;;;;;10.03;62.01;100621.28;5056068;28;20032;-80
2021/04/28 08:58:09;;;;;;;10.50;5.93;;;;;;;10.01;62.44;100611.63;5055551;28;20118;-79
2021/04/28 09:00:35;;;;;;;12.60;5.50;;;;;;;10.04;62.28;100617.63;5053645;28;20029;-79
2021/04/28 09:03:01;;;;;;;14.43;5.60;;;;;;;10.04;62.68;100606.88;5037843;28;20033;-79
2021/04/28 09:05:34;;;;;;;11.25;5.40;;;;;;;10.20;63.25;100618.94;5051757;28;20029;-79
2021/04/28 09:08:00;;;;;;;8.32;5.50;;;;;;;10.25;61.15;100605.94;5039705;28;20043;-79
2021/04/28 09:10:27;;;;;;;9.57;5.40;;;;;;;10.30;61.13;100603.72;5035936;28;20485;-79
2021/04/28 09:12:58;;;;;;;7.78;5.32;;;;;;;10.30;59.46;100603.72;5034089;28;20397;-79
2021/04/28 09:15:41;;;;;;;11.63;6.38;;;;;;;10.33;60.30;100604.28;5016264;28;20048;-79
2021/04/28 09:18:15;;;;;;;9.75;5.93;;;;;;;10.26;60.51;100607.66;5040464;28;20396;-79
2021/04/28 09:20:47;;;;;;;10.68;5.65;;;;;;;10.25;63.07;100606.78;5033412;28;20139;-79
2021/04/28 09:23:14;;;;;;;;;;;;;;;10.23;62.96;100602.56;5047606;28;20025;-79
2021/04/28 09:25:48;;;;;;;9.40;6.15;;;;;;;10.21;62.75;100601.81;5044759;28;20330;-79
2021/04/28 09:28:34;;;;;;;8.13;5.82;;;;;;;10.27;59.23;100606.69;5049221;28;20032;-79
2021/04/28 09:31:06;;;;;;;9.50;5.78;;;;;;;10.31;59.32;100603.56;5035576;28;20033;-79
2021/04/28 09:33:41;;;;;;;11.45;5.82;;;;;;;10.35;59.37;100602.31;5046695;28;20033;-79
2021/04/28 09:36:11;;;;;;;14.45;6.20;;;;;;;10.32;59.92;100599.06;5053713;28;20611;-79
2021/04/28 09:38:51;;;;;;;9.45;6.20;;;;;;;10.38;60.20;100593.16;5052941;28;20037;-78
2021/04/28 09:41:29;;;;;;;9.77;6.00;;;;;;;10.43;61.06;100601.63;5051074;28;20033;-78
2021/04/28 09:43:54;;;;;;;9.90;5.85;;;;;;;10.42;59.48;100591.03;5050468;28;20033;-78
2021/04/28 09:46:20;;;;;;;14.10;6.63;;;;;;;10.58;57.55;100584.09;5037161;28;20659;-78
2021/04/28 09:49:01;;;;;;;13.00;6.55;;;;;;;10.62;56.70;100583.81;5042836;28;20083;-78
2021/04/28 09:51:35;;;;;;;15.52;6.93;;;;;;;10.66;57.41;100580.72;5048319;28;20102;-78
2021/04/28 09:54:15;;;;;;;9.73;6.68;;;;;;;10.73;59.93;100572.94;5048275;28;20056;-78
2021/04/28 09:56:44;;;;;;;11.95;6.25;;;;;;;10.84;59.51;100569.28;5037688;28;20115;-78
2021/04/28 09:59:09;;;;;;;10.25;6.18;;;;;;;10.83;56.78;100571.09;5046758;28;20047;-78
2021/04/28 10:01:39;;;;;;;10.15;6.53;;;;;;;10.91;56.81;100578.47;5049563;28;20039;-78
2021/04/28 10:04:09;;;;;;;8.82;6.32;;;;;;;10.90;56.83;100566.88;5051169;28;20060;-79
2021/04/28 10:06:45;;;;;;;9.77;6.68;;;;;;;10.99;56.59;100573.25;5056524;28;20061;-79
2021/04/28 10:09:31;;;;;;;8.40;6.05;;;;;;;11.19;56.72;100571.38;5032308;28;20029;-79
2021/04/28 10:12:01;;;;;;;13.35;6.53;;;;;;;11.27;56.90;100566.97;5034706;28;20120;-80
2021/04/28 10:14:28;;;;;;;12.63;5.88;;;;;;;11.27;54.87;100566.97;5050686;28;20033;-79
2021/04/28 10:16:55;;;;;;;15.48;6.68;;;;;;;11.39;54.95;100559.56;5048021;28;20082;-78
2021/04/28 10:19:23;;;;;;;13.65;7.07;;;;;;;11.43;54.98;100562.81;5047116;28;20036;-78
2021/04/28 10:21:49;;;;;;;10.23;5.97;;;;;;;11.60;56.09;100555.81;5041805;28;20025;-78
2021/04/28 10:24:17;;;;;;;10.00;6.72;;;;;;;11.67;55.34;100557.78;5047420;28;20028;-78
2021/04/28 10:26:43;;;;;;;10.88;6.43;;;;;;;11.72;53.06;100549.25;5045589;28;20134;-78
2021/04/28 10:29:09;;;;;;;10.57;6.43;;;;;;;11.88;53.26;100556.75;5050796;28;20076;-78
2021/04/28 10:31:38;;;;;;;12.35;6.20;;;;;;;12.06;52.87;100551.38;5046407;28;20037;-78
2021/04/28 10:34:06;;;;;;;12.48;6.75;;;;;;;12.06;50.79;100554.06;5050410;28;20092;-78
2021/04/28 10:36:32;;;;;;;11.45;6.85;;;;;;;12.00;53.02;100552.84;5049425;28;20020;-78
2021/04/28 10:38:57;;;;;;;7.93;5.93;;;;;;;11.92;48.58;100534.72;5039854;28;20594;-79
2021/04/28 10:41:41;;;;;;;7.45;5.53;;;;;;;11.90;45.60;100542.09;5053011;28;20532;-78
2021/04/28 10:44:29;;;;;;;9.65;4.85;;;;;;;11.98;46.21;100541.38;5054124;28;20033;-79
2021/04/28 10:47:13;;;;;;;14.23;6.97;;;;;;;11.97;48.98;100542.38;5040317;28;20021;-78
2021/04/28 10:50:08;;;;;;;9.13;6.75;;;;;;;12.17;49.00;100545.78;5036929;28;20033;-78
2021/04/28 10:52:35;;;;;;;8.50;6.30;;;;;;;12.23;47.24;100534.41;5052720;28;20037;-77
2021/04/28 10:55:01;;;;;;;10.02;5.88;;;;;;;12.34;44.99;100528.81;5051344;28;20063;-78
2021/04/28 10:57:37;;;;;;;9.13;5.55;;;;;;;12.38;44.06;100537.44;5041121;28;20128;-78
2021/04/28 11:00:18;;;;;;;11.80;6.22;;;;;;;12.53;43.80;100533.22;5030973;28;20037;-78
2021/04/28 11:02:44;;;;;;;11.68;6.05;;;;;;;12.62;43.09;100542.25;5047017;28;20551;-79
2021/04/28 11:05:20;;;;;;;7.93;5.72;;;;;;;12.61;43.60;100540.53;5047384;28;20017;-79
2021/04/28 11:07:52;;;;;;;6.80;5.32;;;;;;;12.51;43.18;100537.06;5035224;28;20028;-79
2021/04/28 11:10:33;;;;;;;10.95;6.00;;;;;;;12.55;43.06;100531.22;5047100;28;20032;-78
2021/04/28 11:13:09;;;;;;;9.07;6.17;;;;;;;12.65;43.39;100539.22;5029753;28;20048;-78
2021/04/28 11:15:44;;;;;;;8.25;5.20;;;;;;;12.76;42.34;100535.44;5036594;28;20025;-78
2021/04/28 11:18:38;;;;;;;8.38;5.28;;;;;;;12.79;39.40;100530.56;5038674;28;20036;-78
2021/04/28 11:21:26;;;;;;;9.70;5.40;;;;;;;12.95;39.85;100529.88;5052164;28;20025;-78
2021/04/28 11:24:17;;;;;;;10.32;5.43;;;;;;;13.04;38.88;100520.84;5048358;28;20029;-78
2021/04/28 11:26:46;;;;;;;7.50;5.38;;;;;;;13.04;36.78;100517.28;5052297;28;20485;-78
2021/04/28 11:29:12;;;;;;;9.50;4.97;;;;;;;12.92;37.15;100513.13;5058071;28;20025;-77
2021/04/28 11:31:42;;;;;;;8.48;5.78;;;;;;;12.96;36.43;100514.53;5056653;28;20037;-78